createdAt,value
2018-05-26T00:01:17.470Z,34.37
2018-05-26T00:03:48.362Z,36.30
2018-05-26T00:06:18.561Z,32.60
2018-05-26T00:08:49.895Z,37.80
2018-05-26T00:11:20.269Z,39.23
2018-05-26T00:13:50.606Z,32.47
2018-05-26T00:16:20.944Z,35.73
2018-05-26T00:18:51.279Z,30.70
2018-05-26T00:21:21.464Z,30.57
2018-05-26T00:23:51.501Z,35.13
2018-05-26T00:26:21.672Z,31.70
2018-05-26T00:28:52.386Z,32.67
2018-05-26T00:31:22.477Z,28.90
2018-05-26T00:33:52.568Z,27.37
2018-05-26T00:36:22.950Z,26.73
2018-05-26T00:38:53.039Z,30.03
2018-05-26T00:41:23.114Z,31.33
2018-05-26T00:43:53.391Z,23.33
2018-05-26T00:46:23.395Z,27.73
2018-05-26T00:48:53.652Z,25.20
2018-05-26T00:51:23.835Z,25.33
2018-05-26T00:53:54.031Z,24.07
2018-05-26T00:56:24.335Z,30.70
2018-05-26T00:58:54.685Z,25.17
2018-05-26T01:01:24.829Z,23.10
2018-05-26T01:03:54.976Z,27.17
2018-05-26T01:06:25.364Z,28.23
2018-05-26T01:08:55.838Z,32.50
2018-05-26T01:11:26.236Z,24.07
2018-05-26T01:13:56.064Z,34.53
2018-05-26T01:16:26.548Z,27.43
2018-05-26T01:18:56.897Z,29.30
2018-05-26T01:21:26.649Z,25.20
2018-05-26T01:23:56.822Z,29.47
2018-05-26T01:26:27.921Z,29.77
2018-05-26T01:28:57.713Z,28.70
2018-05-26T01:31:28.498Z,28.70
2018-05-26T01:33:58.777Z,25.60
2018-05-26T01:36:29.198Z,26.77
2018-05-26T01:38:59.551Z,26.47
2018-05-26T01:41:29.685Z,21.53
2018-05-26T01:43:59.527Z,26.60
2018-05-26T01:46:29.973Z,28.30
2018-05-26T01:49:00.375Z,23.37
2018-05-26T01:51:30.637Z,27.20
2018-05-26T01:54:00.949Z,24.13
2018-05-26T01:56:31.367Z,26.33
2018-05-26T01:59:01.533Z,28.07
2018-05-26T02:01:32.407Z,23.33
2018-05-26T02:04:02.929Z,27.13
2018-05-26T02:06:33.239Z,25.30
2018-05-26T02:09:03.675Z,20.93
2018-05-26T02:11:34.018Z,25.97
2018-05-26T02:14:04.347Z,24.47
2018-05-26T02:16:35.443Z,23.73
2018-05-26T02:19:06.097Z,18.83
2018-05-26T02:21:36.575Z,19.03
2018-05-26T02:24:06.837Z,21.63
2018-05-26T02:26:36.690Z,21.13
2018-05-26T02:29:06.599Z,18.63
2018-05-26T02:31:37.774Z,20.77
2018-05-26T02:34:08.203Z,29.77
2018-05-26T02:36:37.954Z,25.07
2018-05-26T02:39:08.753Z,22.53
2018-05-26T02:41:39.048Z,21.37
2018-05-26T02:44:09.331Z,18.93
2018-05-26T02:46:39.718Z,20.30
2018-05-26T02:49:10.196Z,20.70
2018-05-26T02:51:40.225Z,23.87
2018-05-26T02:54:10.639Z,24.77
2018-05-26T02:56:41.072Z,25.70
2018-05-26T02:59:11.289Z,26.73
2018-05-26T03:01:41.602Z,20.57
2018-05-26T03:04:11.724Z,22.50
2018-05-26T03:06:47.537Z,24.73
2018-05-26T03:09:23.751Z,23.47
2018-05-26T03:11:59.943Z,24.27
2018-05-26T03:14:36.196Z,18.47
2018-05-26T03:17:07.235Z,20.63
2018-05-26T03:19:37.658Z,23.40
2018-05-26T03:22:07.889Z,20.20
2018-05-26T03:24:38.311Z,19.87
2018-05-26T03:27:08.033Z,21.90
2018-05-26T03:29:37.852Z,22.20
2018-05-26T03:32:07.627Z,25.60
2018-05-26T03:34:37.420Z,20.53
2018-05-26T03:37:07.184Z,20.13
2018-05-26T03:39:37.011Z,18.10
2018-05-26T03:42:06.803Z,16.97
2018-05-26T03:44:36.561Z,20.63
2018-05-26T03:47:06.331Z,18.80
2018-05-26T03:49:36.049Z,23.27
2018-05-26T03:52:05.816Z,19.23
2018-05-26T03:54:47.279Z,24.63
2018-05-26T03:57:28.815Z,19.97
2018-05-26T04:00:14.482Z,20.10
2018-05-26T04:02:44.213Z,26.17
2018-05-26T04:05:13.980Z,24.20
2018-05-26T04:07:43.732Z,32.03
2018-05-26T04:10:13.439Z,20.90
2018-05-26T04:12:43.194Z,20.37
2018-05-26T04:15:12.925Z,18.93
2018-05-26T04:17:42.683Z,24.87
2018-05-26T04:20:12.463Z,18.97
2018-05-26T04:22:42.183Z,20.93
2018-05-26T04:25:11.957Z,19.40
2018-05-26T04:27:41.788Z,18.33
2018-05-26T04:30:11.517Z,16.90
2018-05-26T04:32:41.282Z,18.73
2018-05-26T04:35:11.022Z,19.47
2018-05-26T04:37:40.768Z,15.43
2018-05-26T04:40:10.554Z,17.27
2018-05-26T04:42:40.324Z,17.77
2018-05-26T04:45:10.078Z,18.23
2018-05-26T04:47:39.802Z,14.90
2018-05-26T04:50:09.550Z,20.23
2018-05-26T04:52:39.313Z,18.87
2018-05-26T04:55:09.044Z,15.03
2018-05-26T04:57:38.739Z,14.13
2018-05-26T05:00:08.509Z,18.47
2018-05-26T05:02:38.272Z,14.50
2018-05-26T05:05:08.087Z,19.57
2018-05-26T05:07:37.815Z,18.40
2018-05-26T05:10:07.607Z,14.43
2018-05-26T05:12:37.360Z,16.37
2018-05-26T05:15:07.095Z,15.50
2018-05-26T05:17:36.831Z,15.23
2018-05-26T05:20:06.617Z,15.97
2018-05-26T05:22:36.344Z,12.70
2018-05-26T05:25:06.103Z,12.37
2018-05-26T05:27:35.814Z,13.60
2018-05-26T05:30:05.637Z,12.90
2018-05-26T05:32:35.438Z,12.47
2018-05-26T05:35:05.165Z,14.57
2018-05-26T05:37:34.927Z,12.93
2018-05-26T05:40:04.643Z,12.87
2018-05-26T05:42:34.379Z,12.80
2018-05-26T05:45:04.141Z,13.97
2018-05-26T05:47:33.835Z,16.63
2018-05-26T05:50:03.580Z,11.20
2018-05-26T05:52:33.326Z,19.27
2018-05-26T05:55:03.098Z,17.33
2018-05-26T05:57:32.891Z,12.73
2018-05-26T06:00:02.622Z,12.27
2018-05-26T06:02:32.364Z,14.17
2018-05-26T06:05:02.154Z,13.53
2018-05-26T06:07:31.902Z,11.33
2018-05-26T06:10:01.623Z,13.43
2018-05-26T06:12:31.389Z,13.10
2018-05-26T06:15:01.126Z,11.90
2018-05-26T06:17:30.864Z,15.40
2018-05-26T06:20:00.606Z,15.03
2018-05-26T06:22:30.320Z,14.47
2018-05-26T06:25:00.089Z,14.57
2018-05-26T06:27:29.777Z,13.90
2018-05-26T06:29:59.450Z,12.57
2018-05-26T06:32:29.205Z,12.20
2018-05-26T06:34:58.912Z,12.60
2018-05-26T06:37:28.594Z,11.73
2018-05-26T06:39:58.343Z,11.10
2018-05-26T06:42:28.033Z,12.03
2018-05-26T06:44:57.728Z,12.33
2018-05-26T06:47:27.470Z,13.30
2018-05-26T06:49:57.198Z,12.53
2018-05-26T06:52:26.976Z,12.70
2018-05-26T06:54:56.670Z,11.07
2018-05-26T06:57:26.372Z,11.43
2018-05-26T06:59:56.167Z,12.07
2018-05-26T07:02:25.869Z,17.93
2018-05-26T07:04:55.558Z,11.97
2018-05-26T07:07:25.330Z,12.53
2018-05-26T07:09:55.059Z,10.97
2018-05-26T07:12:24.774Z,11.37
2018-05-26T07:14:54.499Z,11.57
2018-05-26T07:17:24.201Z,12.03
2018-05-26T07:19:53.994Z,10.20
2018-05-26T07:22:23.685Z,12.27
2018-05-26T07:24:53.438Z,13.97
2018-05-26T07:27:23.191Z,10.77
2018-05-26T07:29:52.929Z,12.63
2018-05-26T07:32:22.624Z,12.97
2018-05-26T07:34:52.378Z,12.47
2018-05-26T07:37:22.073Z,12.10
2018-05-26T07:39:51.798Z,13.43
2018-05-26T07:42:21.499Z,9.80
2018-05-26T07:44:51.195Z,11.27
2018-05-26T07:47:20.947Z,11.23
2018-05-26T07:49:50.698Z,13.43
2018-05-26T07:52:20.389Z,11.43
2018-05-26T07:54:50.156Z,10.40
2018-05-26T07:57:19.858Z,10.80
2018-05-26T07:59:49.569Z,9.97
2018-05-26T08:02:19.311Z,12.47
2018-05-26T08:04:48.997Z,9.47
2018-05-26T08:07:18.714Z,11.17
2018-05-26T08:09:48.383Z,11.70
2018-05-26T08:12:18.083Z,12.03
2018-05-26T08:14:47.816Z,11.10
2018-05-26T08:17:17.590Z,10.37
2018-05-26T08:19:47.240Z,9.33
2018-05-26T08:22:17.090Z,9.67
2018-05-26T08:24:46.821Z,10.73
2018-05-26T08:27:16.591Z,10.67
2018-05-26T08:29:46.316Z,10.60
2018-05-26T08:32:16.026Z,9.57
2018-05-26T08:34:45.739Z,13.23
2018-05-26T08:37:15.436Z,8.90
2018-05-26T08:39:45.146Z,11.57
2018-05-26T08:42:14.886Z,9.70
2018-05-26T08:44:44.565Z,11.80
2018-05-26T08:47:14.255Z,8.10
2018-05-26T08:49:44.007Z,8.27
2018-05-26T08:52:13.815Z,8.30
2018-05-26T08:54:43.630Z,11.00
2018-05-26T08:57:13.431Z,9.73
2018-05-26T08:59:43.117Z,8.87
2018-05-26T09:02:12.864Z,8.00
2018-05-26T09:04:42.622Z,8.87
2018-05-26T09:07:12.314Z,8.00
2018-05-26T09:09:42.097Z,8.63
2018-05-26T09:12:11.793Z,8.43
2018-05-26T09:14:41.528Z,7.63
2018-05-26T09:17:11.225Z,8.10
2018-05-26T09:19:40.975Z,11.00
2018-05-26T09:22:10.720Z,11.27
2018-05-26T09:24:40.460Z,10.90
2018-05-26T09:27:10.178Z,12.10
2018-05-26T09:29:39.931Z,9.40
2018-05-26T09:32:09.648Z,8.73
2018-05-26T09:34:39.373Z,8.73
2018-05-26T09:37:09.063Z,8.77
2018-05-26T09:39:38.736Z,9.20
2018-05-26T09:42:08.462Z,7.10
2018-05-26T09:44:38.169Z,8.17
2018-05-26T09:47:07.851Z,8.10
2018-05-26T09:49:37.578Z,7.47
2018-05-26T09:52:07.272Z,10.40
2018-05-26T09:54:37.076Z,7.97
2018-05-26T09:57:06.837Z,7.57
2018-05-26T09:59:36.534Z,9.53
2018-05-26T10:02:06.254Z,8.80
2018-05-26T10:04:35.917Z,7.03
2018-05-26T10:07:05.607Z,6.07
2018-05-26T10:09:35.342Z,11.97
2018-05-26T10:12:05.023Z,10.17
2018-05-26T10:14:34.700Z,6.93
2018-05-26T10:17:04.433Z,9.30
2018-05-26T10:19:34.140Z,6.40
2018-05-26T10:22:03.833Z,7.47
2018-05-26T10:24:33.555Z,10.60
2018-05-26T10:27:03.242Z,7.63
2018-05-26T10:29:32.959Z,8.17
2018-05-26T10:32:02.715Z,9.17
2018-05-26T10:34:32.427Z,7.60
2018-05-26T10:37:02.184Z,6.13
2018-05-26T10:39:31.875Z,5.93
2018-05-26T10:42:01.613Z,5.37
2018-05-26T10:44:31.344Z,6.40
2018-05-26T10:47:01.143Z,5.57
2018-05-26T10:49:30.860Z,6.93
2018-05-26T10:52:00.601Z,7.07
2018-05-26T10:54:30.312Z,6.20
2018-05-26T10:57:00.023Z,6.97
2018-05-26T10:59:29.732Z,8.27
2018-05-26T11:01:59.418Z,9.67
2018-05-26T11:04:30.921Z,8.80
2018-05-26T11:07:00.589Z,9.00
2018-05-26T11:09:30.373Z,7.03
2018-05-26T11:12:00.119Z,6.20
2018-05-26T11:14:29.829Z,6.53
2018-05-26T11:16:59.636Z,6.70
2018-05-26T11:19:29.326Z,6.67
2018-05-26T11:21:59.061Z,6.07
2018-05-26T11:24:28.846Z,7.53
2018-05-26T11:26:58.582Z,7.47
2018-05-26T11:29:28.319Z,6.10
2018-05-26T11:31:58.057Z,6.43
2018-05-26T11:34:27.771Z,7.50
2018-05-26T11:36:57.511Z,5.93
2018-05-26T11:39:27.213Z,5.97
2018-05-26T11:41:56.946Z,5.20
2018-05-26T11:44:26.662Z,5.47
2018-05-26T11:46:56.352Z,4.63
2018-05-26T11:49:26.114Z,4.97
2018-05-26T11:51:55.861Z,4.43
2018-05-26T11:54:25.547Z,5.20
2018-05-26T11:56:55.252Z,5.40
2018-05-26T11:59:24.932Z,5.33
2018-05-26T12:01:54.651Z,8.43
2018-05-26T12:04:24.391Z,7.93
2018-05-26T12:06:54.087Z,6.63
2018-05-26T12:09:23.797Z,5.87
2018-05-26T12:11:53.481Z,8.23
2018-05-26T12:14:23.203Z,8.60
2018-05-26T12:16:52.937Z,9.23
2018-05-26T12:19:22.638Z,6.53
2018-05-26T12:21:52.344Z,6.00
2018-05-26T12:24:22.060Z,7.63
2018-05-26T12:26:51.809Z,8.87
2018-05-26T12:29:21.499Z,6.27
2018-05-26T12:31:51.296Z,6.97
2018-05-26T12:34:21.004Z,6.73
2018-05-26T12:36:50.697Z,6.27
2018-05-26T12:39:20.377Z,5.43
2018-05-26T12:41:50.082Z,6.10
2018-05-26T12:44:19.842Z,10.73
2018-05-26T12:46:49.624Z,6.53
2018-05-26T12:49:19.312Z,9.17
2018-05-26T12:51:49.085Z,8.03
2018-05-26T12:54:18.797Z,6.40
2018-05-26T12:56:48.516Z,7.03
2018-05-26T12:59:18.222Z,5.07
2018-05-26T13:01:47.902Z,5.83
2018-05-26T13:04:17.630Z,6.80
2018-05-26T13:06:47.399Z,6.07
2018-05-26T13:09:17.204Z,4.90
2018-05-26T13:11:46.932Z,6.03
2018-05-26T13:14:16.615Z,5.30
2018-05-26T13:16:46.379Z,8.70
2018-05-26T13:19:16.122Z,6.00
2018-05-26T13:21:45.890Z,6.30
2018-05-26T13:24:15.649Z,7.07
2018-05-26T13:26:45.391Z,5.60
2018-05-26T13:29:15.195Z,6.50
2018-05-26T13:31:44.965Z,6.00
2018-05-26T13:34:14.665Z,4.53
2018-05-26T13:36:44.409Z,4.67
2018-05-26T13:39:14.111Z,5.10
2018-05-26T13:41:43.830Z,7.53
2018-05-26T13:44:13.600Z,5.60
2018-05-26T13:46:43.313Z,6.50
2018-05-26T13:49:13.058Z,6.63
2018-05-26T13:51:42.862Z,4.90
2018-05-26T13:54:12.639Z,4.97
2018-05-26T13:56:42.441Z,6.50
2018-05-26T13:59:12.246Z,5.93
2018-05-26T14:01:42.002Z,5.80
2018-05-26T14:04:11.814Z,6.60
2018-05-26T14:06:41.523Z,5.37
2018-05-26T14:09:11.265Z,8.80
2018-05-26T14:11:41.038Z,8.43
2018-05-26T14:14:10.798Z,6.73
2018-05-26T14:16:40.614Z,6.83
2018-05-26T14:19:10.395Z,6.23
2018-05-26T14:21:40.116Z,6.10
2018-05-26T14:24:09.862Z,4.80
2018-05-26T14:26:39.646Z,5.83
2018-05-26T14:29:09.379Z,5.30
2018-05-26T14:31:39.111Z,7.53
2018-05-26T14:34:08.853Z,5.60
2018-05-26T14:36:38.641Z,5.57
2018-05-26T14:39:08.385Z,5.80
2018-05-26T14:41:38.199Z,4.83
2018-05-26T14:44:07.913Z,7.50
2018-05-26T14:46:37.621Z,5.43
2018-05-26T14:49:07.362Z,6.40
2018-05-26T14:51:37.088Z,7.10
2018-05-26T14:54:06.798Z,5.77
2018-05-26T14:56:36.592Z,6.73
2018-05-26T14:59:06.326Z,6.20
2018-05-26T15:01:36.083Z,5.80
2018-05-26T15:04:05.801Z,8.37
2018-05-26T15:06:35.534Z,6.67
2018-05-26T15:09:06.096Z,6.40
2018-05-26T15:11:35.814Z,8.70
2018-05-26T15:14:05.587Z,9.00
2018-05-26T15:16:35.347Z,7.23
2018-05-26T15:19:05.205Z,5.33
2018-05-26T15:21:35.018Z,7.82
2018-05-26T15:24:04.738Z,5.33
2018-05-26T15:26:34.530Z,6.00
2018-05-26T15:29:04.349Z,6.60
2018-05-26T15:31:34.071Z,7.87
2018-05-26T15:34:03.778Z,5.57
2018-05-26T15:36:33.497Z,6.50
2018-05-26T15:39:03.312Z,6.47
2018-05-26T15:41:33.055Z,6.10
2018-05-26T15:44:02.776Z,5.30
2018-05-26T15:46:32.505Z,5.50
2018-05-26T15:49:02.321Z,7.10
2018-05-26T15:51:32.082Z,7.37
2018-05-26T15:54:01.822Z,5.70
2018-05-26T15:56:31.550Z,5.40
2018-05-26T15:59:01.278Z,5.63
2018-05-26T16:01:31.080Z,6.23
2018-05-26T16:04:00.792Z,6.77
2018-05-26T16:06:30.516Z,6.70
2018-05-26T16:09:00.288Z,6.07
2018-05-26T16:11:30.015Z,9.70
2018-05-26T16:13:59.813Z,5.83
2018-05-26T16:16:29.533Z,6.37
2018-05-26T16:18:59.315Z,5.50
2018-05-26T16:21:29.143Z,5.80
2018-05-26T16:23:58.849Z,6.20
2018-05-26T16:26:28.585Z,7.23
2018-05-26T16:28:58.379Z,6.30
2018-05-26T16:31:28.104Z,6.33
2018-05-26T16:33:57.915Z,8.73
2018-05-26T16:36:27.722Z,6.33
2018-05-26T16:38:57.444Z,6.57
2018-05-26T16:41:27.201Z,7.07
2018-05-26T16:43:56.976Z,9.50
2018-05-26T16:46:26.773Z,8.63
2018-05-26T16:48:56.478Z,7.57
2018-05-26T16:51:26.203Z,8.43
2018-05-26T16:53:55.953Z,5.93
2018-05-26T16:56:25.684Z,7.67
2018-05-26T16:58:55.381Z,6.10
2018-05-26T17:01:25.169Z,8.17
2018-05-26T17:03:54.903Z,7.07
2018-05-26T17:06:24.683Z,8.57
2018-05-26T17:08:54.403Z,8.73
2018-05-26T17:11:24.147Z,9.13
2018-05-26T17:13:53.914Z,6.80
2018-05-26T17:16:23.608Z,14.77
2018-05-26T17:18:53.329Z,6.70
2018-05-26T17:21:23.083Z,9.23
2018-05-26T17:23:52.795Z,6.10
2018-05-26T17:26:22.602Z,6.60
2018-05-26T17:28:52.319Z,10.37
2018-05-26T17:31:22.039Z,6.00
2018-05-26T17:33:51.783Z,6.63
2018-05-26T17:36:21.494Z,9.20
2018-05-26T17:38:51.187Z,8.17
2018-05-26T17:41:21.252Z,10.03
2018-05-26T17:43:50.953Z,5.87
2018-05-26T17:46:20.698Z,6.37
2018-05-26T17:48:50.405Z,6.57
2018-05-26T17:51:20.154Z,7.63
2018-05-26T17:53:49.929Z,6.17
2018-05-26T17:56:19.685Z,9.87
2018-05-26T17:58:49.452Z,6.47
2018-05-26T18:01:19.161Z,6.53
2018-05-26T18:03:48.883Z,7.43
2018-05-26T18:06:18.636Z,7.70
2018-05-26T18:08:48.336Z,10.83
2018-05-26T18:11:18.122Z,10.77
2018-05-26T18:13:47.886Z,10.97
2018-05-26T18:16:17.624Z,10.93
2018-05-26T18:18:47.384Z,10.63
2018-05-26T18:21:17.129Z,10.40
2018-05-26T18:23:46.826Z,9.33
2018-05-26T18:26:16.676Z,12.80
2018-05-26T18:28:46.382Z,13.53
2018-05-26T18:31:16.089Z,10.60
2018-05-26T18:33:45.956Z,12.13
2018-05-26T18:36:15.669Z,10.87
2018-05-26T18:38:45.439Z,11.07
2018-05-26T18:41:15.255Z,12.97
2018-05-26T18:43:44.996Z,11.07
2018-05-26T18:46:14.747Z,11.97
2018-05-26T18:48:44.463Z,9.80
2018-05-26T18:51:14.252Z,12.73
2018-05-26T18:53:43.969Z,11.50
2018-05-26T18:56:13.710Z,13.13
2018-05-26T18:58:43.537Z,14.60
2018-05-26T19:01:13.244Z,13.33
2018-05-26T19:03:43.004Z,12.57
2018-05-26T19:06:12.799Z,10.07
2018-05-26T19:08:42.536Z,11.30
2018-05-26T19:11:12.302Z,10.47
2018-05-26T19:13:42.019Z,10.80
2018-05-26T19:16:11.773Z,11.47
2018-05-26T19:18:41.579Z,12.83
2018-05-26T19:21:11.332Z,10.17
2018-05-26T19:23:41.533Z,9.97
2018-05-26T19:26:11.269Z,10.77
2018-05-26T19:28:41.000Z,11.27
2018-05-26T19:31:10.796Z,10.07
2018-05-26T19:33:40.499Z,11.90
2018-05-26T19:36:10.277Z,11.17
2018-05-26T19:38:40.924Z,16.13
2018-05-26T19:41:10.714Z,12.07
2018-05-26T19:43:40.430Z,12.30
2018-05-26T19:46:10.217Z,13.77
2018-05-26T19:48:40.212Z,12.30
2018-05-26T19:51:09.985Z,10.50
2018-05-26T19:53:39.786Z,11.03
2018-05-26T19:56:09.549Z,10.87
2018-05-26T19:58:39.355Z,14.97
2018-05-26T20:01:09.152Z,14.60
2018-05-26T20:03:39.312Z,14.03
2018-05-26T20:06:10.428Z,12.77
2018-05-26T20:08:41.798Z,13.47
2018-05-26T20:11:13.015Z,12.23
2018-05-26T20:13:44.137Z,12.73
2018-05-26T20:16:14.443Z,11.70
2018-05-26T20:18:44.885Z,11.27
2018-05-26T20:21:15.988Z,11.03
2018-05-26T20:23:47.460Z,13.17
2018-05-26T20:26:19.334Z,11.93
2018-05-26T20:28:51.100Z,11.27
2018-05-26T20:31:21.950Z,12.63
2018-05-26T20:33:52.697Z,11.43
2018-05-26T20:36:23.255Z,12.67
2018-05-26T20:38:54.831Z,10.90
2018-05-26T20:41:25.791Z,14.20
2018-05-26T20:43:55.701Z,11.67
2018-05-26T20:46:26.353Z,13.10
2018-05-26T20:48:56.404Z,15.60
2018-05-26T20:51:26.463Z,13.40
2018-05-26T20:53:57.234Z,15.07
2018-05-26T20:56:29.431Z,15.93
2018-05-26T20:58:59.745Z,12.33
2018-05-26T21:01:30.473Z,11.13
2018-05-26T21:04:01.208Z,11.33
2018-05-26T21:06:31.345Z,19.27
2018-05-26T21:09:01.492Z,11.73
2018-05-26T21:11:31.702Z,13.97
2018-05-26T21:14:01.785Z,14.90
2018-05-26T21:16:31.920Z,21.73
2018-05-26T21:19:02.059Z,21.83
2018-05-26T21:21:32.322Z,18.37
2018-05-26T21:24:02.815Z,18.43
2018-05-26T21:26:33.870Z,17.67
2018-05-26T21:29:04.605Z,17.93
2018-05-26T21:31:35.308Z,18.97
2018-05-26T21:34:05.321Z,15.20
2018-05-26T21:36:35.553Z,15.33
2018-05-26T21:39:06.719Z,23.33
2018-05-26T21:41:37.215Z,15.17
2018-05-26T21:44:07.805Z,15.00
2018-05-26T21:46:38.337Z,19.00
2018-05-26T21:49:08.730Z,18.07
2018-05-26T21:51:38.554Z,19.10
2018-05-26T21:54:08.758Z,15.40
2018-05-26T21:56:38.965Z,19.17
2018-05-26T21:59:09.891Z,25.97
2018-05-26T22:01:40.749Z,19.23
2018-05-26T22:04:11.548Z,16.00
2018-05-26T22:06:41.695Z,18.77
2018-05-26T22:09:12.060Z,21.27
2018-05-26T22:11:42.408Z,17.63
2018-05-26T22:14:12.983Z,15.97
2018-05-26T22:16:43.493Z,16.10
2018-05-26T22:19:14.018Z,17.03
2018-05-26T22:21:44.531Z,15.17
2018-05-26T22:24:15.081Z,15.33
2018-05-26T22:26:45.536Z,16.07
2018-05-26T22:29:16.069Z,12.77
2018-05-26T22:31:46.684Z,15.77
2018-05-26T22:34:16.687Z,13.00
2018-05-26T22:36:47.014Z,16.30
2018-05-26T22:39:17.879Z,14.43
2018-05-26T22:41:48.407Z,14.70
2018-05-26T22:44:19.014Z,13.90
2018-05-26T22:46:49.140Z,16.83
2018-05-26T22:49:19.687Z,15.13
2018-05-26T22:51:50.103Z,13.17
2018-05-26T22:54:20.855Z,17.33
2018-05-26T22:56:50.785Z,13.90
2018-05-26T22:59:21.173Z,15.30
2018-05-26T23:01:51.578Z,15.33
2018-05-26T23:04:22.021Z,15.17
2018-05-26T23:06:51.792Z,14.23
2018-05-26T23:09:21.924Z,15.03
2018-05-26T23:11:52.332Z,14.67
2018-05-26T23:14:22.857Z,16.80
2018-05-26T23:16:53.375Z,15.20
2018-05-26T23:19:23.874Z,14.20
2018-05-26T23:21:54.171Z,15.27
2018-05-26T23:24:24.037Z,16.70
2018-05-26T23:26:54.535Z,15.77
2018-05-26T23:29:24.886Z,16.63
2018-05-26T23:31:55.237Z,17.30
2018-05-26T23:34:25.390Z,17.67
2018-05-26T23:36:55.801Z,16.10
2018-05-26T23:39:25.607Z,16.33
2018-05-26T23:41:56.310Z,17.53
2018-05-26T23:44:26.643Z,16.13
2018-05-26T23:46:56.424Z,22.27
2018-05-26T23:49:27.146Z,17.57
2018-05-26T23:51:57.584Z,17.07
2018-05-26T23:54:28.365Z,16.27
2018-05-26T23:56:58.848Z,16.57
2018-05-26T23:59:28.662Z,22.23
